Time;durP1;ratioP1;P1;durP2;ratioP2;P2;SDS_P1;SDS_P2;PMS_P1;PMS_P2;Temp;Humidity;BMP_temperature;BMP_pressure;BME280_temperature;BME280_humidity;BME280_pressure;Samples;Min_cycle;Max_cycle;Signal;HPM_P1;HPM_P2
2022/04/13 00:01:20;;;;;;;5.33;3.63;;;13.80;98.30;;;;;;10388934;28;20202;-83
2022/04/13 00:06:26;;;;;;;3.53;3.30;;;13.80;98.20;;;;;;10407097;28;20210;-83
2022/04/13 00:11:35;;;;;;;4.00;3.70;;;13.70;98.50;;;;;;10389674;28;20703;-85
2022/04/13 00:16:39;;;;;;;4.23;3.93;;;13.70;98.90;;;;;;10389772;28;20344;-83
2022/04/13 00:21:43;;;;;;;3.53;3.23;;;13.70;99.10;;;;;;10414048;28;20205;-84
2022/04/13 00:26:45;;;;;;;4.00;3.70;;;13.70;99.00;;;;;;10435501;28;20260;-82
2022/04/13 00:31:47;;;;;;;4.37;4.03;;;13.70;99.30;;;;;;10394182;28;20224;-82
2022/04/13 00:36:50;;;;;;;4.87;3.73;;;13.70;99.50;;;;;;10413061;28;20214;-82
2022/04/13 00:41:57;;;;;;;4.33;3.87;;;13.70;98.50;;;;;;10402694;28;20194;-82
2022/04/13 00:47:01;;;;;;;3.30;3.10;;;13.80;98.40;;;;;;10420549;28;20222;-82
2022/04/13 00:52:06;;;;;;;3.50;3.20;;;13.70;98.50;;;;;;10420314;28;20600;-82
2022/04/13 00:57:10;;;;;;;4.60;4.20;;;13.60;98.50;;;;;;10403826;28;20652;-82
2022/04/13 01:02:13;;;;;;;4.70;4.27;;;13.60;98.80;;;;;;10394950;28;20670;-82
2022/04/13 01:07:17;;;;;;;3.87;3.50;;;13.50;99.20;;;;;;10386312;28;20237;-82
2022/04/13 01:12:19;;;;;;;3.70;3.40;;;13.50;99.40;;;;;;10409128;28;20278;-82
2022/04/13 01:17:22;;;;;;;3.50;3.23;;;13.50;99.70;;;;;;10437103;28;20302;-82
2022/04/13 01:22:26;;;;;;;4.07;3.77;;;13.40;99.90;;;;;;10423354;28;20198;-82
2022/04/13 01:27:28;;;;;;;6.97;6.27;;;13.40;99.60;;;;;;10423178;28;20268;-82
2022/04/13 01:32:31;;;;;;;9.10;7.90;;;13.30;99.30;;;;;;10440132;28;20599;-82
2022/04/13 01:37:34;;;;;;;13.40;12.00;;;13.20;99.90;;;;;;10414676;28;20226;-82
2022/04/13 01:42:36;;;;;;;5.80;4.73;;;13.20;99.90;;;;;;10416695;28;20194;-82
2022/04/13 01:47:39;;;;;;;5.17;4.77;;;13.10;99.90;;;;;;10432177;28;20244;-82
2022/04/13 01:52:42;;;;;;;5.57;5.17;;;13.10;99.90;;;;;;10400642;28;20229;-82
2022/04/13 01:57:47;;;;;;;4.47;4.13;;;13.00;99.90;;;;;;10417929;28;20705;-82
2022/04/13 02:02:49;;;;;;;4.33;3.90;;;13.00;99.90;;;;;;10412459;28;20198;-82
2022/04/13 02:07:53;;;;;;;4.30;4.00;;;12.90;99.90;;;;;;10429903;28;20678;-82
2022/04/13 02:12:55;;;;;;;4.50;4.20;;;12.90;99.90;;;;;;10415701;28;20657;-82
2022/04/13 02:17:57;;;;;;;5.13;4.67;;;12.90;99.80;;;;;;10414054;28;20217;-82
2022/04/13 02:23:02;;;;;;;4.97;4.30;;;12.80;99.90;;;;;;10414738;28;20193;-82
2022/04/13 02:28:04;;;;;;;4.57;4.17;;;12.70;99.90;;;;;;10383362;28;20616;-82
2022/04/13 02:33:07;;;;;;;4.40;4.00;;;12.70;99.90;;;;;;10413936;28;20281;-81
2022/04/13 02:38:11;;;;;;;4.50;4.10;;;12.60;99.20;;;;;;10399072;28;20217;-82
2022/04/13 02:43:13;;;;;;;5.97;4.17;;;12.60;99.70;;;;;;10406828;28;20201;-82
2022/04/13 02:48:16;;;;;;;5.47;4.73;;;12.50;99.90;;;;;;10418323;28;20299;-82
2022/04/13 02:53:19;;;;;;;4.30;3.90;;;12.50;99.90;;;;;;10405056;28;20214;-82
2022/04/13 02:58:21;;;;;;;4.27;4.00;;;12.50;99.90;;;;;;10416775;28;20271;-82
2022/04/13 03:03:24;;;;;;;4.23;3.93;;;12.40;99.90;;;;;;10382253;28;20194;-82
2022/04/13 03:08:27;;;;;;;6.70;4.17;;;12.40;99.90;;;;;;10399857;28;20260;-82
2022/04/13 03:13:30;;;;;;;5.13;4.73;;;12.40;99.90;;;;;;10384045;28;20221;-82
2022/04/13 03:18:33;;;;;;;4.90;4.40;;;12.30;99.90;;;;;;10406925;28;20277;-82
2022/04/13 03:23:37;;;;;;;5.63;4.10;;;12.30;99.90;;;;;;10426914;28;20270;-82
2022/04/13 03:28:39;;;;;;;4.00;3.70;;;12.30;99.90;;;;;;10400091;28;20245;-82
2022/04/13 03:33:41;;;;;;;4.70;4.30;;;12.30;99.90;;;;;;10414307;28;20221;-82
2022/04/13 03:38:45;;;;;;;4.87;4.53;;;12.30;99.90;;;;;;10414138;28;20331;-82
2022/04/13 03:43:47;;;;;;;5.20;4.80;;;12.30;99.90;;;;;;10414779;28;20229;-82
2022/04/13 03:48:50;;;;;;;4.50;4.10;;;12.20;99.90;;;;;;10413644;28;20268;-82
2022/04/13 03:53:53;;;;;;;4.73;4.03;;;12.10;99.90;;;;;;10381316;28;20218;-82
2022/04/13 03:58:56;;;;;;;5.30;4.90;;;12.10;99.90;;;;;;10427755;22;20667;-84
2022/04/13 04:03:58;;;;;;;4.73;4.33;;;12.10;99.90;;;;;;10453416;28;20205;-84
2022/04/13 04:09:01;;;;;;;6.33;4.57;;;12.10;99.90;;;;;;10421378;28;20221;-84
2022/04/13 04:14:04;;;;;;;5.83;5.00;;;12.00;99.90;;;;;;10412231;28;20643;-85
2022/04/13 04:19:06;;;;;;;6.47;5.80;;;12.00;99.90;;;;;;10427649;28;20624;-85
2022/04/13 04:24:10;;;;;;;5.50;5.10;;;12.00;99.90;;;;;;10429380;28;20200;-85
2022/04/13 04:29:12;;;;;;;5.77;5.13;;;12.00;99.90;;;;;;10439573;28;20218;-85
2022/04/13 04:34:14;;;;;;;6.03;5.53;;;12.00;99.90;;;;;;10413490;28;20217;-85
2022/04/13 04:39:18;;;;;;;7.87;5.83;;;11.90;99.90;;;;;;10437102;28;20701;-84
2022/04/13 04:44:20;;;;;;;6.40;5.47;;;11.90;99.90;;;;;;10429176;28;20225;-82
2022/04/13 04:49:22;;;;;;;5.50;5.00;;;11.90;99.90;;;;;;10434838;28;20213;-82
2022/04/13 04:54:26;;;;;;;5.67;5.27;;;11.90;99.90;;;;;;10436537;28;20204;-81
2022/04/13 04:59:28;;;;;;;7.43;5.97;;;11.90;99.90;;;;;;10435909;28;20234;-83
2022/04/13 05:04:30;;;;;;;6.40;4.87;;;11.90;99.90;;;;;;10419997;28;20189;-83
2022/04/13 05:09:33;;;;;;;5.23;4.27;;;11.90;99.90;;;;;;10448026;28;20687;-82
2022/04/13 05:14:35;;;;;;;6.53;5.00;;;12.00;99.90;;;;;;10424182;28;20228;-83
2022/04/13 05:19:38;;;;;;;8.20;5.27;;;12.00;99.90;;;;;;10428857;28;20638;-82
2022/04/13 05:24:41;;;;;;;5.00;4.60;;;12.10;99.90;;;;;;10406911;28;20293;-82
2022/04/13 05:29:43;;;;;;;9.40;5.43;;;12.10;99.90;;;;;;10405745;28;20218;-81
2022/04/13 05:34:45;;;;;;;5.50;5.00;;;12.20;99.90;;;;;;10423656;28;20213;-83
2022/04/13 05:39:49;;;;;;;5.60;4.97;;;12.30;99.90;;;;;;10429220;28;20256;-81
2022/04/13 05:44:51;;;;;;;5.20;4.60;;;12.40;99.90;;;;;;10423027;28;20622;-84
2022/04/13 05:49:53;;;;;;;5.30;3.70;;;12.40;99.90;;;;;;10397947;28;20232;-84
2022/04/13 05:54:57;;;;;;;5.20;4.50;;;12.60;99.90;;;;;;10431837;28;20715;-84
2022/04/13 05:59:59;;;;;;;5.23;4.83;;;12.70;99.90;;;;;;10427479;28;20238;-84
2022/04/13 06:05:01;;;;;;;6.60;4.90;;;12.80;99.90;;;;;;10412552;28;20205;-83
2022/04/13 06:10:05;;;;;;;6.80;4.73;;;12.90;99.90;;;;;;10451934;28;20641;-83
2022/04/13 06:15:09;;;;;;;5.40;5.00;;;13.00;99.90;;;;;;10411730;28;20236;-84
2022/04/13 06:20:14;;;;;;;7.70;6.70;;;13.20;99.90;;;;;;10444133;28;20308;-83
2022/04/13 06:25:17;;;;;;;5.40;4.90;;;13.30;99.90;;;;;;10434439;28;20185;-84
2022/04/13 06:30:19;;;;;;;8.10;7.30;;;13.50;99.90;;;;;;10422768;28;20279;-84
2022/04/13 06:35:23;;;;;;;6.00;5.07;;;13.60;99.90;;;;;;10427150;28;20290;-83
2022/04/13 06:40:27;;;;;;;7.70;6.23;;;13.70;99.90;;;;;;10467014;28;20217;-83
2022/04/13 06:45:29;;;;;;;6.20;5.67;;;13.90;99.90;;;;;;10468120;28;20224;-84
2022/04/13 06:50:31;;;;;;;6.40;5.90;;;14.00;99.90;;;;;;10427149;28;20205;-83
2022/04/13 06:55:37;;;;;;;7.00;6.20;;;14.10;99.90;;;;;;10420821;28;20221;-82
2022/04/13 07:00:40;;;;;;;8.83;8.03;;;14.20;99.90;;;;;;10410617;28;20213;-82
2022/04/13 07:05:42;;;;;;;6.70;6.20;;;14.30;99.90;;;;;;10458810;28;20221;-82
2022/04/13 07:10:46;;;;;;;6.60;6.10;;;14.40;99.90;;;;;;10426057;28;20714;-83
2022/04/13 07:15:49;;;;;;;7.20;6.50;;;14.50;99.90;;;;;;10440284;28;20201;-81
2022/04/13 07:20:51;;;;;;;7.20;6.50;;;14.60;99.90;;;;;;10409766;28;20217;-83
2022/04/13 07:25:55;;;;;;;7.30;6.60;;;14.70;99.90;;;;;;10416314;28;20293;-83
2022/04/13 07:30:57;;;;;;;8.90;7.57;;;14.80;99.90;;;;;;10418579;28;20267;-82
2022/04/13 07:35:59;;;;;;;10.60;8.97;;;14.90;99.90;;;;;;10419961;28;20193;-83
2022/04/13 07:41:04;;;;;;;8.80;8.00;;;15.00;99.90;;;;;;10426347;28;20229;-83
2022/04/13 07:46:06;;;;;;;8.20;7.40;;;15.10;99.90;;;;;;10412468;28;20231;-82
2022/04/13 07:51:08;;;;;;;7.50;6.70;;;15.30;99.90;;;;;;10415930;28;20275;-82
2022/04/13 07:56:12;;;;;;;7.07;6.50;;;15.50;99.90;;;;;;10411307;28;20203;-83
2022/04/13 08:01:15;;;;;;;8.50;7.70;;;15.60;99.90;;;;;;10412915;28;20198;-84
2022/04/13 08:06:17;;;;;;;9.33;7.10;;;15.80;99.90;;;;;;10416495;28;20662;-84
2022/04/13 08:11:20;;;;;;;9.13;7.73;;;16.00;99.90;;;;;;10423333;28;20217;-84
2022/04/13 08:16:22;;;;;;;7.60;6.90;;;16.20;99.90;;;;;;10427278;28;20213;-82
2022/04/13 08:21:25;;;;;;;13.83;6.80;;;16.40;99.90;;;;;;10421489;28;20202;-84
2022/04/13 08:26:28;;;;;;;7.53;6.93;;;16.60;99.90;;;;;;10415537;28;20252;-82
2022/04/13 08:31:30;;;;;;;8.57;7.10;;;16.70;99.90;;;;;;10404084;28;20214;-82
2022/04/13 08:36:33;;;;;;;8.40;6.90;;;16.90;99.90;;;;;;10412987;28;20221;-84
2022/04/13 08:41:48;;;;;;;7.60;6.80;;;17.20;99.90;;;;;;10406786;28;20197;-84
2022/04/13 08:46:55;;;;;;;5.70;5.27;;;17.30;99.90;;;;;;10410191;28;20599;-83
2022/04/13 08:52:04;;;;;;;5.70;4.73;;;17.50;99.90;;;;;;10398348;28;20271;-84
2022/04/13 08:57:11;;;;;;;4.07;3.77;;;17.70;99.90;;;;;;10410464;28;20240;-83
2022/04/13 09:02:23;;;;;;;4.60;4.20;;;17.90;99.90;;;;;;10422910;28;20564;-84
2022/04/13 09:07:32;;;;;;;5.00;3.70;;;18.10;99.90;;;;;;10401474;28;20227;-84
2022/04/13 09:12:37;;;;;;;5.50;3.77;;;18.20;99.90;;;;;;10408373;28;20641;-83
2022/04/13 09:17:39;;;;;;;4.73;3.70;;;18.30;99.70;;;;;;10415402;28;20218;-83
2022/04/13 09:22:43;;;;;;;3.73;3.40;;;18.50;99.90;;;;;;10416560;28;20246;-83
2022/04/13 09:27:48;;;;;;;3.50;2.90;;;18.70;99.90;;;;;;10435961;28;20225;-83
2022/04/13 09:32:51;;;;;;;3.43;3.03;;;18.90;98.50;;;;;;10412821;28;20313;-85
2022/04/13 09:37:55;;;;;;;3.00;2.80;;;19.10;98.10;;;;;;10437192;28;20222;-84
2022/04/13 09:43:06;;;;;;;5.23;3.00;;;19.30;94.60;;;;;;10442679;28;20197;-83
2022/04/13 09:48:10;;;;;;;3.90;3.43;;;19.50;95.10;;;;;;10463878;28;20213;-83
2022/04/13 09:53:14;;;;;;;3.70;3.00;;;19.70;95.10;;;;;;10420337;28;20218;-83
2022/04/13 09:58:19;;;;;;;3.70;3.40;;;19.90;95.60;;;;;;10431650;28;20272;-83
2022/04/13 10:03:25;;;;;;;4.27;3.80;;;20.20;94.90;;;;;;10407331;28;20193;-83
2022/04/13 10:08:32;;;;;;;3.30;3.00;;;20.30;94.80;;;;;;10434204;28;20483;-83
2022/04/13 10:13:40;;;;;;;3.60;3.30;;;20.50;94.00;;;;;;10411852;28;20222;-83
2022/04/13 10:18:56;;;;;;;3.13;2.80;;;20.50;92.70;;;;;;10411789;28;20222;-83
2022/04/13 10:23:58;;;;;;;3.27;3.03;;;20.40;94.00;;;;;;10424225;28;20668;-84
2022/04/13 10:29:01;;;;;;;3.90;3.60;;;20.20;94.50;;;;;;10403750;28;20229;-82
2022/04/13 10:34:05;;;;;;;3.93;3.40;;;20.00;94.50;;;;;;10410922;28;20218;-83
2022/04/13 10:39:07;;;;;;;4.47;3.00;;;19.90;95.00;;;;;;10396440;28;20225;-82
2022/04/13 10:44:11;;;;;;;4.20;3.70;;;19.80;92.90;;;;;;10398129;28;20199;-83
2022/04/13 10:49:16;;;;;;;4.90;4.40;;;19.70;92.80;;;;;;10404442;28;20217;-83
2022/04/13 10:54:22;;;;;;;9.83;4.40;;;19.60;94.40;;;;;;10390044;28;20217;-84
2022/04/13 10:59:32;;;;;;;4.57;4.03;;;19.40;95.40;;;;;;10371468;28;20233;-84
2022/04/13 11:04:34;;;;;;;6.93;4.10;;;19.30;95.20;;;;;;10404595;28;20245;-85
2022/04/13 11:09:41;;;;;;;5.93;4.70;;;19.20;95.40;;;;;;10395069;28;20225;-85
2022/04/13 11:14:53;;;;;;;5.23;4.23;;;19.10;95.40;;;;;;10411556;28;20237;-83
2022/04/13 11:20:21;;;;;;;6.47;4.30;;;19.00;94.10;;;;;;10409066;28;20652;-83
2022/04/13 11:25:50;;;;;;;4.17;3.87;;;19.00;94.10;;;;;;10401489;28;20205;-86
2022/04/13 11:31:08;;;;;;;6.40;3.20;;;19.10;94.40;;;;;;10395448;28;20279;-83
2022/04/13 11:36:10;;;;;;;5.20;3.40;;;19.10;94.10;;;;;;10415153;28;20599;-85
2022/04/13 11:41:12;;;;;;;4.63;2.73;;;19.10;93.40;;;;;;10400059;28;20209;-84
2022/04/13 11:46:39;;;;;;;4.17;3.13;;;19.20;92.90;;;;;;10419180;28;20201;-84
2022/04/13 11:51:41;;;;;;;3.70;3.40;;;19.20;92.90;;;;;;10408144;28;20209;-83
2022/04/13 11:56:51;;;;;;;3.20;3.00;;;19.20;93.10;;;;;;10415668;28;20276;-83
2022/04/13 12:01:55;;;;;;;3.97;3.53;;;19.10;94.60;;;;;;10414002;28;20197;-83
2022/04/13 12:06:57;;;;;;;4.90;2.80;;;19.10;91.60;;;;;;10428322;28;20222;-84
2022/04/13 12:12:02;;;;;;;3.67;3.27;;;19.20;91.00;;;;;;10409419;28;20245;-84
2022/04/13 12:17:06;;;;;;;3.50;3.27;;;19.30;93.70;;;;;;10431424;28;20261;-86
2022/04/13 12:22:15;;;;;;;6.47;3.33;;;19.30;93.00;;;;;;10424562;28;20206;-85
2022/04/13 12:27:18;;;;;;;3.23;2.90;;;19.30;92.10;;;;;;10436536;28;20253;-85
2022/04/13 12:32:22;;;;;;;3.70;3.40;;;19.20;92.30;;;;;;10428943;28;20237;-84
2022/04/13 12:37:24;;;;;;;3.33;3.00;;;19.20;93.10;;;;;;10422758;28;20275;-84
2022/04/13 12:42:26;;;;;;;3.27;2.90;;;19.10;93.50;;;;;;10419219;28;20213;-85
2022/04/13 12:47:29;;;;;;;3.27;2.90;;;19.10;92.30;;;;;;10424272;28;20433;-85
2022/04/13 12:52:32;;;;;;;3.60;2.90;;;19.10;92.20;;;;;;10427694;28;20218;-85
2022/04/13 12:57:34;;;;;;;3.00;2.70;;;19.10;91.50;;;;;;10430507;28;20229;-85
2022/04/13 13:02:37;;;;;;;4.73;3.10;;;19.10;93.20;;;;;;10409938;28;20211;-81
2022/04/13 13:07:40;;;;;;;4.87;3.30;;;19.00;91.50;;;;;;10421322;28;20255;-84
2022/04/13 13:12:55;;;;;;;;;;;;;;;;;;;;;
2022/04/13 13:18:09;;;;;;;2.93;2.73;;;19.00;93.50;;;;;;10421791;28;20221;-84
2022/04/13 13:23:11;;;;;;;4.00;3.23;;;18.90;94.20;;;;;;10422876;28;20801;-83
2022/04/13 13:28:14;;;;;;;3.33;3.03;;;18.90;91.90;;;;;;10402057;28;20221;-83
2022/04/13 13:33:18;;;;;;;3.50;2.70;;;18.90;89.90;;;;;;10398514;28;20226;-85
2022/04/13 13:38:23;;;;;;;3.27;2.93;;;19.10;90.40;;;;;;10418867;28;20218;-82
2022/04/13 13:43:38;;;;;;;2.73;2.60;;;19.20;91.70;;;;;;10407516;28;20202;-83
2022/04/13 13:48:43;;;;;;;3.53;2.70;;;19.20;92.10;;;;;;10436006;28;20212;-82
2022/04/13 13:53:50;;;;;;;5.23;3.30;;;19.10;93.60;;;;;;10444350;28;20268;-85
2022/04/13 13:58:52;;;;;;;12.70;4.33;;;19.00;93.40;;;;;;10415864;28;20681;-84
2022/04/13 14:03:55;;;;;;;5.33;3.40;;;19.10;90.30;;;;;;10412614;28;20201;-83
2022/04/13 14:08:59;;;;;;;6.60;3.60;;;19.30;90.00;;;;;;10437011;28;20751;-82
2022/04/13 14:14:01;;;;;;;5.77;3.37;;;19.50;90.40;;;;;;10432477;28;20272;-83
2022/04/13 14:19:05;;;;;;;5.93;3.10;;;19.50;90.10;;;;;;10390210;28;20657;-83
2022/04/13 14:24:08;;;;;;;5.33;3.50;;;19.50;91.40;;;;;;10405608;28;20205;-82
2022/04/13 14:29:10;;;;;;;3.30;3.00;;;19.50;90.10;;;;;;10394562;28;20275;-82
2022/04/13 14:34:14;;;;;;;4.20;3.80;;;19.50;90.50;;;;;;10400918;28;20305;-82
2022/04/13 14:39:16;;;;;;;3.97;3.37;;;19.50;91.10;;;;;;10397097;28;20316;-83
2022/04/13 14:44:19;;;;;;;3.70;3.10;;;19.50;89.80;;;;;;10410251;28;20297;-81
2022/04/13 14:49:22;;;;;;;2.73;2.53;;;19.60;88.60;;;;;;10434141;28;20283;-86
2022/04/13 14:54:25;;;;;;;2.80;2.60;;;19.60;90.00;;;;;;10407924;28;20214;-83
2022/04/13 14:59:27;;;;;;;3.00;2.80;;;19.70;90.90;;;;;;10411334;28;20253;-84
2022/04/13 15:04:31;;;;;;;4.73;3.27;;;19.70;90.10;;;;;;10403756;28;20221;-84
2022/04/13 15:09:33;;;;;;;3.60;2.40;;;19.70;87.40;;;;;;10439135;28;20217;-85
2022/04/13 15:14:36;;;;;;;3.30;2.87;;;19.80;86.20;;;;;;10427104;28;20289;-84
2022/04/13 15:19:40;;;;;;;3.70;2.60;;;19.80;90.90;;;;;;10430093;28;20565;-83
2022/04/13 15:24:42;;;;;;;2.80;2.50;;;19.70;89.80;;;;;;10423549;28;20194;-83
2022/04/13 15:29:44;;;;;;;5.03;2.30;;;19.70;91.80;;;;;;10396515;28;20245;-84
2022/04/13 15:34:49;;;;;;;3.60;3.30;;;19.60;87.00;;;;;;10384960;28;20214;-83
2022/04/13 15:39:52;;;;;;;2.27;2.07;;;19.60;88.90;;;;;;10413063;28;20235;-79
2022/04/13 15:44:54;;;;;;;4.13;2.77;;;19.60;88.20;;;;;;10412722;28;20281;-81
2022/04/13 15:49:57;;;;;;;3.13;2.67;;;19.60;90.40;;;;;;10380125;28;20710;-80
2022/04/13 15:55:00;;;;;;;4.00;3.00;;;19.60;90.80;;;;;;10409926;28;20228;-82
2022/04/13 16:00:04;;;;;;;3.33;2.30;;;19.50;91.50;;;;;;10353733;23;20231;-83
2022/04/13 16:05:18;;;;;;;5.10;2.53;;;19.50;88.90;;;;;;10321062;28;20554;-83
2022/04/13 16:10:21;;;;;;;3.77;2.20;;;19.60;86.30;;;;;;10355696;28;20282;-84
2022/04/13 16:15:24;;;;;;;4.60;3.60;;;19.80;84.70;;;;;;10341781;28;20229;-84
2022/04/13 16:20:28;;;;;;;6.13;2.40;;;19.80;86.00;;;;;;10342821;28;20694;-83
2022/04/13 16:25:31;;;;;;;3.70;2.70;;;19.90;84.70;;;;;;10358879;28;20195;-83
2022/04/13 16:30:33;;;;;;;4.43;2.37;;;19.90;87.80;;;;;;10352622;28;20230;-84
2022/04/13 16:35:36;;;;;;;5.23;2.77;;;19.70;89.60;;;;;;10351301;28;20750;-84
2022/04/13 16:40:39;;;;;;;4.03;2.77;;;19.60;90.10;;;;;;10377270;28;20222;-85
2022/04/13 16:45:41;;;;;;;5.20;2.63;;;19.50;89.30;;;;;;10367930;28;20230;-85
2022/04/13 16:50:45;;;;;;;6.40;2.70;;;19.40;91.10;;;;;;10341107;28;20765;-83
2022/04/13 16:55:47;;;;;;;5.23;2.30;;;19.30;90.30;;;;;;10340968;28;20225;-83
2022/04/13 17:00:49;;;;;;;8.83;2.90;;;19.20;91.30;;;;;;10349511;28;20699;-83
2022/04/13 17:05:53;;;;;;;2.80;2.60;;;19.10;92.80;;;;;;10341428;28;20207;-82
2022/04/13 17:10:55;;;;;;;5.83;3.13;;;18.90;92.50;;;;;;10331226;28;20234;-83
2022/04/13 17:15:57;;;;;;;2.83;2.63;;;18.80;93.30;;;;;;10347092;28;20230;-82
2022/04/13 17:21:01;;;;;;;4.80;3.30;;;18.60;94.20;;;;;;10361050;28;20227;-84
2022/04/13 17:26:03;;;;;;;5.17;3.90;;;18.40;94.60;;;;;;10331785;28;20207;-83
2022/04/13 17:31:05;;;;;;;5.67;3.10;;;18.30;95.30;;;;;;10316513;28;20258;-84
2022/04/13 17:36:10;;;;;;;4.67;3.17;;;18.10;95.30;;;;;;10319645;28;20219;-82
2022/04/13 17:41:12;;;;;;;6.17;4.00;;;18.10;94.50;;;;;;10335525;28;20695;-84
2022/04/13 17:46:16;;;;;;;4.63;4.10;;;18.10;93.50;;;;;;10324387;28;20721;-84
2022/04/13 17:51:20;;;;;;;6.47;4.50;;;18.30;91.90;;;;;;10313945;28;20235;-84
2022/04/13 17:56:22;;;;;;;7.50;4.90;;;18.40;92.30;;;;;;10322058;28;20276;-83
2022/04/13 18:01:25;;;;;;;4.77;3.10;;;18.60;92.30;;;;;;10298656;28;20218;-84
2022/04/13 18:06:28;;;;;;;7.63;4.37;;;18.60;91.10;;;;;;10327326;28;20192;-83
2022/04/13 18:11:30;;;;;;;11.33;5.30;;;18.60;91.70;;;;;;10330070;28;20226;-83
2022/04/13 18:16:33;;;;;;;8.60;4.50;;;18.60;92.10;;;;;;10326123;28;20346;-83
2022/04/13 18:21:37;;;;;;;7.90;6.60;;;18.50;91.70;;;;;;10337997;28;20198;-83
2022/04/13 18:26:39;;;;;;;19.03;11.13;;;18.40;92.20;;;;;;10346359;28;20195;-84
2022/04/13 18:31:41;;;;;;;14.27;8.90;;;18.30;92.20;;;;;;10325179;28;20214;-83
2022/04/13 18:36:45;;;;;;;21.00;12.57;;;18.20;92.50;;;;;;10336027;28;20623;-83
2022/04/13 18:41:47;;;;;;;19.43;10.90;;;18.10;92.30;;;;;;10340546;28;20218;-84
2022/04/13 18:46:50;;;;;;;15.30;10.70;;;17.90;92.80;;;;;;10316588;28;20227;-84
2022/04/13 18:51:53;;;;;;;31.00;17.13;;;17.90;92.90;;;;;;10332518;28;20218;-83
2022/04/13 18:56:56;;;;;;;16.60;11.70;;;17.80;92.90;;;;;;10324429;28;20226;-83
2022/04/13 19:01:58;;;;;;;14.50;10.37;;;17.70;93.20;;;;;;10368526;28;20214;-85
2022/04/13 19:07:03;;;;;;;9.93;5.60;;;17.60;93.40;;;;;;10349893;28;20218;-83
2022/04/13 19:12:06;;;;;;;6.00;4.80;;;17.50;93.20;;;;;;10306083;28;20211;-83
2022/04/13 19:17:08;;;;;;;6.93;4.40;;;17.40;93.90;;;;;;10350297;28;20233;-84
2022/04/13 19:22:12;;;;;;;5.47;4.97;;;17.40;94.00;;;;;;10350209;28;20229;-83
2022/04/13 19:27:14;;;;;;;5.67;5.10;;;17.30;94.20;;;;;;10323162;28;20250;-83
2022/04/13 19:32:17;;;;;;;8.00;6.13;;;17.30;94.80;;;;;;10326472;28;20239;-83
2022/04/13 19:37:21;;;;;;;5.90;5.30;;;17.10;95.10;;;;;;10308648;28;20229;-83
2022/04/13 19:42:26;;;;;;;5.93;4.67;;;17.10;95.50;;;;;;10303602;28;20202;-83
2022/04/13 19:47:28;;;;;;;8.27;5.30;;;17.00;95.40;;;;;;10331128;28;20281;-84
2022/04/13 19:52:32;;;;;;;8.40;5.90;;;16.90;95.70;;;;;;10320121;28;20281;-84
2022/04/13 19:57:34;;;;;;;5.50;5.00;;;16.80;95.70;;;;;;10306268;28;20226;-83
2022/04/13 20:02:37;;;;;;;9.33;5.50;;;16.70;96.10;;;;;;10320165;28;20611;-83
2022/04/13 20:07:41;;;;;;;7.33;5.77;;;16.70;96.40;;;;;;10345125;28;20356;-83
2022/04/13 20:12:43;;;;;;;6.73;5.87;;;16.60;96.40;;;;;;10340063;28;20210;-84
2022/04/13 20:17:45;;;;;;;6.83;6.03;;;16.60;96.60;;;;;;10340223;28;20691;-83
2022/04/13 20:22:49;;;;;;;7.30;5.23;;;16.50;96.30;;;;;;10351805;28;20573;-84
2022/04/13 20:27:52;;;;;;;6.77;5.40;;;16.50;96.70;;;;;;10334783;28;20264;-83
2022/04/13 20:32:56;;;;;;;5.03;4.37;;;16.40;96.80;;;;;;10322140;28;20226;-82
2022/04/13 20:38:01;;;;;;;8.37;5.70;;;16.30;97.20;;;;;;10341768;28;20659;-83
2022/04/13 20:43:05;;;;;;;5.93;5.43;;;16.20;97.80;;;;;;10367809;28;20203;-83
2022/04/13 20:48:09;;;;;;;5.80;4.83;;;16.20;97.40;;;;;;10338799;28;20248;-83
2022/04/13 20:53:13;;;;;;;6.03;5.40;;;16.10;97.40;;;;;;10322350;28;20204;-82
2022/04/13 20:58:15;;;;;;;5.80;5.20;;;16.10;97.20;;;;;;10336444;28;20227;-83
2022/04/13 21:03:17;;;;;;;5.83;5.20;;;16.00;97.20;;;;;;10320657;28;20208;-83
2022/04/13 21:08:21;;;;;;;6.90;4.80;;;15.90;97.80;;;;;;10348172;28;20231;-83
2022/04/13 21:13:23;;;;;;;8.10;6.03;;;15.90;97.70;;;;;;10342873;28;20646;-83
2022/04/13 21:18:26;;;;;;;11.13;5.87;;;15.80;97.80;;;;;;10341347;28;20226;-83
2022/04/13 21:23:29;;;;;;;6.90;6.20;;;15.70;97.90;;;;;;10318033;28;20206;-83
2022/04/13 21:28:32;;;;;;;8.50;5.83;;;15.70;98.00;;;;;;10336769;28;20596;-83
2022/04/13 21:33:34;;;;;;;7.43;5.10;;;15.60;98.00;;;;;;10350694;28;20301;-85
2022/04/13 21:38:38;;;;;;;9.60;5.30;;;15.60;98.10;;;;;;10318148;28;20227;-83
2022/04/13 21:43:40;;;;;;;8.10;5.47;;;15.50;98.30;;;;;;10321998;28;20253;-83
2022/04/13 21:48:43;;;;;;;7.60;5.80;;;15.40;98.40;;;;;;10313232;28;20683;-83
2022/04/13 21:53:46;;;;;;;5.13;4.63;;;15.40;98.40;;;;;;10333372;28;20697;-83
2022/04/13 21:58:49;;;;;;;6.90;4.97;;;15.40;98.70;;;;;;10358883;23;20238;-81
2022/04/13 22:03:51;;;;;;;5.87;5.10;;;15.30;98.50;;;;;;10366285;28;20257;-81
2022/04/13 22:08:54;;;;;;;8.30;5.00;;;15.30;98.50;;;;;;10371749;28;20280;-80
2022/04/13 22:13:56;;;;;;;5.73;5.17;;;15.20;98.60;;;;;;10374622;28;20248;-81
2022/04/13 22:18:59;;;;;;;5.80;5.30;;;15.20;98.50;;;;;;10370929;28;20423;-81
2022/04/13 22:24:02;;;;;;;5.97;5.37;;;15.10;98.90;;;;;;10407634;28;20205;-81
2022/04/13 22:29:05;;;;;;;7.57;5.53;;;15.10;98.60;;;;;;10359185;28;20217;-79
2022/04/13 22:34:07;;;;;;;5.20;4.70;;;15.00;98.60;;;;;;10391531;28;20347;-81
2022/04/13 22:39:11;;;;;;;6.43;5.50;;;15.00;98.80;;;;;;10351514;28;20675;-79
2022/04/13 22:44:13;;;;;;;5.03;4.63;;;14.90;99.60;;;;;;10360159;28;20198;-79
2022/04/13 22:49:16;;;;;;;7.10;5.40;;;14.90;99.90;;;;;;10370097;28;20577;-79
2022/04/13 22:54:20;;;;;;;12.07;5.00;;;14.90;99.90;;;;;;10336105;28;20998;-78
2022/04/13 22:59:22;;;;;;;5.30;4.90;;;14.80;99.90;;;;;;10363779;28;20615;-78
2022/04/13 23:04:24;;;;;;;7.40;5.50;;;14.80;99.90;;;;;;10380975;28;20202;-81
2022/04/13 23:09:28;;;;;;;5.47;4.50;;;14.80;99.70;;;;;;10364640;28;20222;-79
2022/04/13 23:14:30;;;;;;;6.40;5.27;;;14.70;99.70;;;;;;10342601;28;20736;-81
2022/04/13 23:19:32;;;;;;;5.37;4.77;;;14.70;99.50;;;;;;10366387;28;20221;-80
2022/04/13 23:24:36;;;;;;;6.77;6.10;;;14.60;99.50;;;;;;10363016;28;20226;-77
2022/04/13 23:29:38;;;;;;;5.17;4.40;;;14.50;99.90;;;;;;10367849;28;20215;-79
2022/04/13 23:34:40;;;;;;;4.70;4.30;;;14.50;99.90;;;;;;10365985;28;20574;-78
2022/04/13 23:39:44;;;;;;;6.87;5.40;;;14.50;99.90;;;;;;10365663;28;20230;-77
2022/04/13 23:44:46;;;;;;;6.50;4.53;;;14.40;99.90;;;;;;10343281;28;20203;-78
2022/04/13 23:49:48;;;;;;;4.53;4.13;;;14.40;99.90;;;;;;10367548;28;20253;-79
2022/04/13 23:54:51;;;;;;;6.03;4.90;;;14.30;99.90;;;;;;10378844;28;20273;-79
2022/04/13 23:59:53;;;;;;;7.83;4.87;;;14.20;99.90;;;;;;10341851;28;20742;-80
